createdAt,value
2022-10-12T00:00:17.905Z,5.27
2022-10-12T00:02:45.504Z,5.24
2022-10-12T00:05:26.104Z,5.25
2022-10-12T00:07:56.002Z,5.16
2022-10-12T00:10:52.203Z,5.16
2022-10-12T00:13:34.038Z,5.18
2022-10-12T00:16:27.110Z,5.13
2022-10-12T00:19:04.866Z,5.09
2022-10-12T00:21:47.225Z,5.04
2022-10-12T00:24:31.988Z,5.01
2022-10-12T00:27:11.742Z,5.02
2022-10-12T00:30:01.969Z,5.00
2022-10-12T00:33:01.451Z,4.97
2022-10-12T00:35:34.928Z,4.95
2022-10-12T00:38:10.052Z,4.92
2022-10-12T00:40:44.183Z,4.88
2022-10-12T00:43:38.586Z,4.86
2022-10-12T00:46:22.993Z,4.90
2022-10-12T00:48:58.747Z,4.83
2022-10-12T00:51:32.499Z,4.84
2022-10-12T00:54:09.248Z,4.78
2022-10-12T00:56:49.747Z,4.85
2022-10-12T00:59:23.906Z,4.84
2022-10-12T01:02:15.751Z,4.83
2022-10-12T01:05:00.895Z,4.78
2022-10-12T01:07:37.475Z,4.78
2022-10-12T01:10:18.491Z,4.78
2022-10-12T01:12:49.585Z,4.77
2022-10-12T01:15:44.331Z,4.78
2022-10-12T01:18:31.759Z,4.85
2022-10-12T01:21:23.485Z,4.89
2022-10-12T01:24:10.200Z,4.92
2022-10-12T01:27:32.848Z,4.96
2022-10-12T01:30:44.880Z,4.97
2022-10-12T01:33:37.924Z,5.00
2022-10-12T01:36:24.696Z,4.97
2022-10-12T01:39:12.779Z,5.02
2022-10-12T01:41:55.667Z,5.02
2022-10-12T01:44:37.961Z,5.07
2022-10-12T01:47:14.942Z,5.14
2022-10-12T01:50:11.169Z,5.12
2022-10-12T01:52:56.839Z,5.17
2022-10-12T01:55:45.218Z,5.24
2022-10-12T01:58:24.735Z,5.27
2022-10-12T02:01:31.470Z,5.30
2022-10-12T02:04:39.966Z,5.34
2022-10-12T02:07:30.616Z,5.36
2022-10-12T02:10:24.278Z,5.33
2022-10-12T02:13:03.002Z,5.34
2022-10-12T02:15:49.201Z,5.39
2022-10-12T02:18:36.725Z,5.37
2022-10-12T02:22:05.686Z,5.44
2022-10-12T02:24:38.310Z,5.45
2022-10-12T02:27:22.646Z,5.51
2022-10-12T02:29:55.190Z,5.50
2022-10-12T02:32:54.785Z,5.57
2022-10-12T02:36:00.155Z,5.56
2022-10-12T02:39:18.852Z,5.57
2022-10-12T02:42:37.856Z,5.59
2022-10-12T02:45:20.761Z,5.56
2022-10-12T02:48:01.826Z,5.61
2022-10-12T02:50:39.108Z,5.60
2022-10-12T02:53:24.640Z,5.65
2022-10-12T02:55:59.962Z,5.64
2022-10-12T02:58:40.605Z,5.71
2022-10-12T03:01:23.429Z,5.70
2022-10-12T03:03:53.587Z,5.76
2022-10-12T03:06:30.588Z,5.81
2022-10-12T03:09:11.722Z,5.82
2022-10-12T03:11:51.641Z,5.84
2022-10-12T03:14:30.994Z,5.80
2022-10-12T03:17:04.510Z,5.83
2022-10-12T03:19:44.016Z,5.85
2022-10-12T03:22:24.726Z,5.91
2022-10-12T03:25:11.285Z,5.94
2022-10-12T03:27:41.818Z,5.97
2022-10-12T03:30:31.589Z,6.02
2022-10-12T03:33:22.556Z,5.97
2022-10-12T03:36:15.032Z,6.03
2022-10-12T03:39:00.938Z,6.03
2022-10-12T03:41:48.547Z,6.08
2022-10-12T03:44:34.402Z,6.10
2022-10-12T03:47:26.393Z,6.08
2022-10-12T03:50:12.047Z,6.16
2022-10-12T03:52:52.912Z,6.19
2022-10-12T03:55:45.426Z,6.25
2022-10-12T03:58:21.777Z,6.26
2022-10-12T04:01:33.157Z,6.28
2022-10-12T04:04:21.549Z,6.32
2022-10-12T04:07:08.584Z,6.38
2022-10-12T04:09:49.917Z,6.35
2022-10-12T04:12:39.029Z,6.36
2022-10-12T04:15:19.806Z,6.38
2022-10-12T04:18:07.701Z,6.47
2022-10-12T04:20:55.281Z,6.47
2022-10-12T04:23:43.897Z,6.49
2022-10-12T04:26:30.535Z,6.50
2022-10-12T04:29:24.147Z,6.56
2022-10-12T04:32:40.745Z,6.55
2022-10-12T04:35:14.725Z,6.57
2022-10-12T04:38:04.537Z,6.63
2022-10-12T04:41:11.386Z,6.66
2022-10-12T04:43:51.058Z,6.66
2022-10-12T04:46:24.081Z,6.63
2022-10-12T04:51:58.889Z,6.74
2022-10-12T04:57:32.450Z,6.71
2022-10-12T05:00:10.327Z,6.73
2022-10-12T05:05:28.686Z,6.79
2022-10-12T05:08:08.228Z,6.79
2022-10-12T05:11:04.834Z,6.79
2022-10-12T05:13:58.656Z,6.81
2022-10-12T05:17:07.616Z,6.86
2022-10-12T05:20:03.321Z,6.87
2022-10-12T05:22:49.525Z,6.90
2022-10-12T05:25:23.629Z,6.92
2022-10-12T05:28:17.588Z,6.84
2022-10-12T05:31:36.844Z,6.80
2022-10-12T05:34:17.450Z,6.79
2022-10-12T05:37:08.762Z,6.80
2022-10-12T05:39:50.149Z,6.77
2022-10-12T05:42:51.787Z,6.76
2022-10-12T05:45:41.179Z,6.75
2022-10-12T05:48:32.511Z,6.71
2022-10-12T05:57:32.968Z,6.52
2022-10-12T06:00:25.611Z,6.42
2022-10-12T06:04:23.191Z,6.41
2022-10-12T06:07:22.273Z,6.43
2022-10-12T06:10:35.746Z,6.33
2022-10-12T06:13:26.060Z,6.35
2022-10-12T06:16:23.826Z,6.34
2022-10-12T06:19:22.831Z,6.28
2022-10-12T06:22:00.911Z,6.22
2022-10-12T06:25:41.433Z,6.24
2022-10-12T06:37:05.800Z,6.15
2022-10-12T06:40:03.396Z,6.21
2022-10-12T06:45:59.170Z,6.19
2022-10-12T06:49:02.130Z,6.17
2022-10-12T06:56:06.665Z,6.19
2022-10-12T07:02:41.327Z,6.23
2022-10-12T07:09:04.541Z,6.26
2022-10-12T07:12:13.109Z,6.33
2022-10-12T07:18:58.876Z,6.40
2022-10-12T07:25:29.797Z,6.46
2022-10-12T07:28:27.058Z,6.57
2022-10-12T07:35:03.997Z,6.61
2022-10-12T07:38:45.665Z,6.77
2022-10-12T07:56:59.847Z,7.48
2022-10-12T08:00:38.749Z,7.64
2022-10-12T08:02:56.415Z,7.78
2022-10-12T08:05:54.738Z,7.87
2022-10-12T08:09:14.990Z,7.99
2022-10-12T08:15:13.157Z,8.16
2022-10-12T08:17:45.908Z,8.28
2022-10-12T08:20:22.366Z,8.37
2022-10-12T08:23:00.590Z,8.43
2022-10-12T08:25:34.304Z,8.58
2022-10-12T08:28:23.121Z,8.69
2022-10-12T08:32:03.866Z,8.75
2022-10-12T08:34:42.603Z,8.91
2022-10-12T08:37:25.489Z,8.96
2022-10-12T08:40:41.283Z,9.04
2022-10-12T08:47:24.773Z,9.27
2022-10-12T08:50:50.620Z,9.34
2022-10-12T08:53:40.917Z,9.41
2022-10-12T08:56:31.533Z,9.57
2022-10-12T08:59:28.005Z,9.59
2022-10-12T09:02:28.083Z,9.74
2022-10-12T09:05:47.997Z,9.89
2022-10-12T09:09:23.365Z,9.97
2022-10-12T09:12:15.996Z,10.02
2022-10-12T09:15:39.418Z,10.13
2022-10-12T09:18:20.310Z,10.27
2022-10-12T09:21:06.529Z,10.46
2022-10-12T09:24:02.495Z,10.47
2022-10-12T09:27:03.340Z,10.59
2022-10-12T09:30:02.779Z,10.67
2022-10-12T09:35:54.288Z,10.86
2022-10-12T09:38:29.990Z,10.91
2022-10-12T09:44:47.435Z,11.13
2022-10-12T09:47:57.158Z,11.17
2022-10-12T09:50:51.656Z,11.25
2022-10-12T09:54:06.528Z,11.35
2022-10-12T10:00:24.225Z,11.48
2022-10-12T10:03:43.203Z,11.56
2022-10-12T10:13:43.609Z,11.73
2022-10-12T10:16:33.323Z,11.84
2022-10-12T10:19:20.169Z,11.90
2022-10-12T10:25:53.721Z,12.13
2022-10-12T10:29:15.073Z,12.16
2022-10-12T10:32:01.549Z,12.27
2022-10-12T10:35:25.288Z,12.27
2022-10-12T10:41:53.928Z,12.47
2022-10-12T10:45:12.968Z,12.56
2022-10-12T10:48:52.127Z,12.66
2022-10-12T10:51:37.976Z,12.65
2022-10-12T10:59:09.796Z,12.81
2022-10-12T11:02:15.992Z,12.86
2022-10-12T11:05:22.536Z,12.89
2022-10-12T11:08:45.640Z,12.94
2022-10-12T11:11:40.169Z,12.93
2022-10-12T11:15:23.191Z,12.98
2022-10-12T11:19:18.920Z,12.96
2022-10-12T11:27:35.372Z,13.07
2022-10-12T11:30:08.299Z,13.17
2022-10-12T11:41:19.449Z,13.36
2022-10-12T11:48:16.082Z,13.49
2022-10-12T11:51:22.194Z,13.52
2022-10-12T11:55:40.761Z,13.56
2022-10-12T12:01:45.622Z,13.64
2022-10-12T12:11:52.961Z,13.72
2022-10-12T12:15:00.544Z,13.82
2022-10-12T12:26:17.141Z,13.86
2022-10-12T12:29:42.088Z,13.93
2022-10-12T12:33:08.314Z,13.92
2022-10-12T12:36:16.170Z,13.98
2022-10-12T12:39:35.077Z,13.96
2022-10-12T12:42:41.518Z,13.96
2022-10-12T12:49:22.167Z,14.09
2022-10-12T12:52:27.908Z,14.07
2022-10-12T12:59:24.215Z,14.15
2022-10-12T13:03:02.090Z,14.15
2022-10-12T13:06:13.875Z,14.10
2022-10-12T13:16:36.650Z,14.16
2022-10-12T13:19:39.898Z,14.11
2022-10-12T13:23:01.819Z,14.13
2022-10-12T13:26:07.761Z,14.14
2022-10-12T13:30:13.415Z,14.13
2022-10-12T13:33:08.628Z,14.11
2022-10-12T13:36:32.688Z,14.18
2022-10-12T13:39:54.946Z,14.14
2022-10-12T13:43:13.568Z,14.16
2022-10-12T13:46:03.409Z,14.15
2022-10-12T13:49:53.427Z,14.21
2022-10-12T13:56:15.714Z,14.18
2022-10-12T13:59:29.121Z,14.14
2022-10-12T14:05:42.482Z,14.14
2022-10-12T14:12:05.105Z,14.10
2022-10-12T14:19:22.141Z,14.03
2022-10-12T14:28:34.391Z,13.90
2022-10-12T14:31:25.578Z,13.83
2022-10-12T14:34:51.940Z,13.83
2022-10-12T14:37:56.876Z,13.79
2022-10-12T14:41:00.448Z,13.76
2022-10-12T14:47:51.737Z,13.66
2022-10-12T14:53:40.919Z,13.48
2022-10-12T14:56:50.773Z,13.40
2022-10-12T14:59:42.506Z,13.35
2022-10-12T15:02:41.081Z,13.35
2022-10-12T15:06:22.221Z,13.26
2022-10-12T15:08:33.685Z,13.21
2022-10-12T15:11:30.725Z,13.19
2022-10-12T15:15:02.927Z,13.12
2022-10-12T15:17:47.324Z,13.09
2022-10-12T15:20:27.903Z,13.03
2022-10-12T15:23:48.307Z,12.94
2022-10-12T15:28:23.442Z,12.94
2022-10-12T15:30:12.100Z,12.79
2022-10-12T15:36:01.993Z,12.61
2022-10-12T15:44:53.092Z,12.42
2022-10-12T15:47:46.854Z,12.30
2022-10-12T15:50:37.132Z,12.26
2022-10-12T15:53:52.123Z,12.17
2022-10-12T15:56:31.807Z,12.05
2022-10-12T15:59:14.421Z,11.99
2022-10-12T16:05:26.422Z,11.79
2022-10-12T16:08:15.400Z,11.68
2022-10-12T16:13:56.480Z,11.50
2022-10-12T16:16:54.012Z,11.35
2022-10-12T16:19:32.720Z,11.28
2022-10-12T16:25:01.490Z,11.06
2022-10-12T16:27:36.006Z,11.02
2022-10-12T16:30:29.480Z,10.92
2022-10-12T16:33:27.959Z,10.83
2022-10-12T16:36:50.216Z,10.70
2022-10-12T16:39:37.798Z,10.58
2022-10-12T16:42:26.685Z,10.50
2022-10-12T16:48:12.377Z,10.39
2022-10-12T16:50:46.745Z,10.31
2022-10-12T16:53:38.849Z,10.19
2022-10-12T16:59:17.410Z,10.06
2022-10-12T17:05:11.390Z,9.92
2022-10-12T17:07:55.576Z,9.88
2022-10-12T17:10:39.194Z,9.77
2022-10-12T17:13:19.308Z,9.76
2022-10-12T17:19:25.114Z,9.64
2022-10-12T17:22:11.010Z,9.53
2022-10-12T17:25:42.592Z,9.44
2022-10-12T17:28:27.378Z,9.41
2022-10-12T17:31:35.716Z,9.33
2022-10-12T17:34:15.584Z,9.27
2022-10-12T17:36:51.296Z,9.16
2022-10-12T17:39:46.981Z,9.09
2022-10-12T17:42:36.178Z,8.99
2022-10-12T17:45:10.113Z,8.90
2022-10-12T17:48:09.754Z,8.82
2022-10-12T17:51:04.523Z,8.76
2022-10-12T17:54:18.698Z,8.76
2022-10-12T17:56:55.074Z,8.69
2022-10-12T17:59:39.041Z,8.61
2022-10-12T18:02:17.054Z,8.55
2022-10-12T18:05:35.416Z,8.51
2022-10-12T18:08:20.353Z,8.46
2022-10-12T18:11:05.619Z,8.43
2022-10-12T18:13:51.588Z,8.31
2022-10-12T18:16:33.819Z,8.28
2022-10-12T18:23:39.753Z,8.20
2022-10-12T18:25:43.451Z,8.07
2022-10-12T18:28:21.346Z,8.09
2022-10-12T18:31:02.191Z,8.01
2022-10-12T18:34:09.158Z,7.99
2022-10-12T18:36:45.485Z,7.95
2022-10-12T18:39:36.255Z,7.90
2022-10-12T18:42:34.433Z,7.86
2022-10-12T18:45:15.830Z,7.78
2022-10-12T18:47:56.791Z,7.75
2022-10-12T18:53:44.181Z,7.62
2022-10-12T18:56:26.377Z,7.60
2022-10-12T18:59:01.639Z,7.49
2022-10-12T19:02:11.852Z,7.48
2022-10-12T19:05:09.018Z,7.38
2022-10-12T19:08:07.201Z,7.32
2022-10-12T19:10:50.147Z,7.28
2022-10-12T19:13:21.415Z,7.30
2022-10-12T19:16:32.326Z,7.27
2022-10-12T19:19:14.786Z,7.23
2022-10-12T19:22:13.383Z,7.19
2022-10-12T19:28:08.394Z,7.06
2022-10-12T19:34:40.086Z,6.97
2022-10-12T19:37:55.905Z,6.89
2022-10-12T19:40:50.533Z,6.88
2022-10-12T19:43:48.989Z,6.85
2022-10-12T19:46:50.157Z,6.87
2022-10-12T19:49:27.472Z,6.78
2022-10-12T19:52:06.293Z,6.79
2022-10-12T19:54:53.790Z,6.76
2022-10-12T19:57:41.633Z,6.74
2022-10-12T20:00:25.264Z,6.67
2022-10-12T20:03:45.312Z,6.70
2022-10-12T20:05:52.965Z,6.68
2022-10-12T20:08:24.549Z,6.66
2022-10-12T20:10:55.366Z,6.57
2022-10-12T20:13:54.908Z,6.58
2022-10-12T20:16:58.193Z,6.56
2022-10-12T20:19:34.933Z,6.57
2022-10-12T20:22:34.551Z,6.49
2022-10-12T20:25:45.245Z,6.55
2022-10-12T20:31:50.956Z,6.41
2022-10-12T20:34:41.347Z,6.44
2022-10-12T20:37:55.879Z,6.40
2022-10-12T20:40:51.582Z,6.35
2022-10-12T20:46:38.100Z,6.26
2022-10-12T20:52:51.276Z,6.13
2022-10-12T20:58:49.340Z,6.08
2022-10-12T21:02:08.955Z,6.08
2022-10-12T21:05:02.123Z,5.96
2022-10-12T21:08:40.340Z,6.00
2022-10-12T21:11:28.264Z,5.90
2022-10-12T21:14:25.598Z,5.88
2022-10-12T21:17:28.027Z,5.87
2022-10-12T21:22:59.893Z,5.79
2022-10-12T21:27:11.869Z,5.86
2022-10-12T21:29:25.099Z,5.79
2022-10-12T21:32:10.547Z,5.79
2022-10-12T21:38:06.701Z,5.76
2022-10-12T21:41:01.234Z,5.76
2022-10-12T21:44:10.830Z,5.79
2022-10-12T21:50:40.701Z,5.72
2022-10-12T21:54:11.471Z,5.74
2022-10-12T21:57:15.225Z,5.76
2022-10-12T22:00:13.905Z,5.74
2022-10-12T22:02:48.952Z,5.75
2022-10-12T22:05:51.222Z,5.77
2022-10-12T22:09:30.519Z,5.72
2022-10-12T22:13:10.886Z,5.72
2022-10-12T22:15:47.512Z,5.72
2022-10-12T22:18:27.650Z,5.76
2022-10-12T22:21:47.140Z,5.74
2022-10-12T22:24:42.396Z,5.70
2022-10-12T22:30:46.638Z,5.73
2022-10-12T22:33:43.243Z,5.71
2022-10-12T22:36:33.139Z,5.66
2022-10-12T22:39:42.807Z,5.63
2022-10-12T22:45:31.766Z,5.64
2022-10-12T22:50:05.889Z,5.57
2022-10-12T22:55:07.440Z,5.59
2022-10-12T22:58:34.227Z,5.55
2022-10-12T23:01:14.891Z,5.56
2022-10-12T23:03:53.438Z,5.48
2022-10-12T23:07:12.830Z,5.48
2022-10-12T23:10:20.838Z,5.47
2022-10-12T23:13:29.644Z,5.53
2022-10-12T23:16:25.981Z,5.51
2022-10-12T23:19:38.306Z,5.59
2022-10-12T23:22:54.396Z,5.57
2022-10-12T23:26:11.528Z,5.54
2022-10-12T23:29:46.741Z,5.62
2022-10-12T23:32:37.072Z,5.62
2022-10-12T23:35:52.620Z,5.64
2022-10-12T23:38:47.196Z,5.61
2022-10-12T23:41:40.031Z,5.66
2022-10-12T23:44:39.784Z,5.70
2022-10-12T23:47:35.933Z,5.67
2022-10-12T23:50:35.848Z,5.75
2022-10-12T23:57:41.467Z,5.78
